createdAt,value
2022-10-01T00:00:37.269Z,96034.03
2022-10-01T00:04:49.624Z,96034.81
2022-10-01T00:09:02.004Z,96045.66
2022-10-01T00:13:14.323Z,96036.16
2022-10-01T00:17:27.035Z,96038.75
2022-10-01T00:21:39.359Z,96037.84
2022-10-01T00:25:54.198Z,96035.66
2022-10-01T00:30:07.795Z,96045.47
2022-10-01T00:34:20.560Z,96037.50
2022-10-01T00:38:33.128Z,96033.78
2022-10-01T00:42:45.552Z,96047.75
2022-10-01T00:47:02.998Z,96045.13
2022-10-01T00:51:15.748Z,96044.38
2022-10-01T00:55:40.677Z,96041.59
2022-10-01T00:59:55.407Z,96037.03
2022-10-01T01:04:17.049Z,96030.13
2022-10-01T01:08:30.308Z,96023.66
2022-10-01T01:13:13.580Z,96016.06
2022-10-01T01:17:41.365Z,96016.72
2022-10-01T01:22:04.147Z,96005.72
2022-10-01T01:26:17.097Z,96001.31
2022-10-01T01:30:33.294Z,96008.22
2022-10-01T01:34:49.671Z,96003.06
2022-10-01T01:39:07.888Z,95998.50
2022-10-01T01:43:25.598Z,96013.25
2022-10-01T01:47:42.936Z,96019.44
2022-10-01T01:52:05.088Z,96014.22
2022-10-01T01:56:18.071Z,96004.72
2022-10-01T02:00:30.787Z,96011.63
2022-10-01T02:04:52.712Z,96007.94
2022-10-01T02:09:31.521Z,96019.13
2022-10-01T02:13:49.361Z,96008.41
2022-10-01T02:18:24.003Z,96016.81
2022-10-01T02:23:00.108Z,96005.75
2022-10-01T02:27:25.635Z,96016.31
2022-10-01T02:31:38.850Z,96015.41
2022-10-01T02:35:54.422Z,96012.53
2022-10-01T02:40:11.991Z,96013.72
2022-10-01T02:44:38.601Z,96000.69
2022-10-01T02:48:52.091Z,95995.94
2022-10-01T02:53:11.674Z,95987.31
2022-10-01T02:57:25.576Z,95986.38
2022-10-01T03:01:38.428Z,95973.66
2022-10-01T03:05:51.032Z,95974.72
2022-10-01T03:10:06.708Z,95977.47
2022-10-01T03:14:19.836Z,95978.94
2022-10-01T03:18:32.162Z,95980.59
2022-10-01T03:22:48.689Z,95986.69
2022-10-01T03:27:01.502Z,95980.69
2022-10-01T03:31:13.956Z,95983.59
2022-10-01T03:35:26.544Z,95975.09
2022-10-01T03:39:38.885Z,95971.69
2022-10-01T03:43:57.156Z,95960.97
2022-10-01T03:48:12.782Z,95956.94
2022-10-01T03:52:25.180Z,95960.59
2022-10-01T03:56:38.600Z,95953.97
2022-10-01T04:00:51.343Z,95955.31
2022-10-01T04:05:03.962Z,95958.50
2022-10-01T04:09:16.275Z,95962.44
2022-10-01T04:13:30.741Z,95972.13
2022-10-01T04:17:45.986Z,95966.78
2022-10-01T04:21:58.584Z,95956.69
2022-10-01T04:26:11.080Z,95953.03
2022-10-01T04:30:23.778Z,95967.78
2022-10-01T04:34:53.995Z,95962.75
2022-10-01T04:39:06.328Z,95964.56
2022-10-01T04:43:18.680Z,95971.53
2022-10-01T04:47:33.565Z,95979.88
2022-10-01T04:51:49.357Z,95972.41
2022-10-01T04:56:02.220Z,95976.41
2022-10-01T05:00:20.963Z,95970.47
2022-10-01T05:04:33.284Z,95982.84
2022-10-01T05:08:45.755Z,95975.66
2022-10-01T05:13:02.044Z,95973.28
2022-10-01T05:17:18.056Z,95977.75
2022-10-01T05:21:30.481Z,95964.75
2022-10-01T05:25:43.586Z,95968.13
2022-10-01T05:29:57.040Z,95975.00
2022-10-01T05:34:09.389Z,95980.66
2022-10-01T05:38:21.837Z,95970.44
2022-10-01T05:42:34.408Z,95967.53
2022-10-01T05:46:46.759Z,95977.16
2022-10-01T05:50:59.519Z,95989.13
2022-10-01T05:55:12.338Z,95986.19
2022-10-01T05:59:29.664Z,95974.97
2022-10-01T06:03:45.025Z,95988.72
2022-10-01T06:07:57.759Z,95985.47
2022-10-01T06:12:10.575Z,95988.78
2022-10-01T06:16:22.975Z,95995.78
2022-10-01T06:20:36.504Z,96003.91
2022-10-01T06:24:49.114Z,96004.38
2022-10-01T06:29:01.568Z,95994.88
2022-10-01T06:33:17.324Z,95997.44
2022-10-01T06:37:29.813Z,95998.81
2022-10-01T06:41:44.281Z,96004.19
2022-10-01T06:46:01.951Z,95992.78
2022-10-01T06:50:14.455Z,96006.22
2022-10-01T06:54:28.124Z,96006.63
2022-10-01T06:58:40.441Z,96006.25
2022-10-01T07:02:56.380Z,96001.50
2022-10-01T07:07:08.891Z,95999.53
2022-10-01T07:11:21.228Z,95990.16
2022-10-01T07:15:33.778Z,95982.97
2022-10-01T07:19:46.144Z,95980.41
2022-10-01T07:23:58.611Z,95979.13
2022-10-01T07:28:17.061Z,95984.13
2022-10-01T07:32:32.385Z,95975.47
2022-10-01T07:36:46.013Z,95956.75
2022-10-01T07:40:59.765Z,95956.63
2022-10-01T07:45:12.232Z,95970.91
2022-10-01T07:49:26.023Z,95976.06
2022-10-01T07:53:38.347Z,95968.31
2022-10-01T07:57:55.021Z,95965.75
2022-10-01T08:02:15.639Z,95958.38
2022-10-01T08:06:28.184Z,95947.25
2022-10-01T08:10:42.071Z,95952.16
2022-10-01T08:14:54.589Z,95941.66
2022-10-01T08:19:10.509Z,95937.66
2022-10-01T08:23:22.854Z,95938.69
2022-10-01T08:27:38.442Z,95943.72
2022-10-01T08:31:51.003Z,95939.91
2022-10-01T08:36:05.802Z,95935.13
2022-10-01T08:40:21.160Z,95932.66
2022-10-01T08:44:41.188Z,95922.28
2022-10-01T08:49:17.239Z,95926.84
2022-10-01T08:53:39.172Z,95920.13
2022-10-01T08:57:59.471Z,95918.44
2022-10-01T09:02:28.348Z,95923.41
2022-10-01T09:06:41.257Z,95918.25
2022-10-01T09:11:07.289Z,95916.75
2022-10-01T09:15:45.783Z,95898.72
2022-10-01T09:20:28.289Z,95896.47
2022-10-01T09:24:55.455Z,95904.16
2022-10-01T09:29:15.111Z,95899.78
2022-10-01T09:33:34.011Z,95904.78
2022-10-01T09:37:54.496Z,95919.41
2022-10-01T09:42:07.468Z,95911.47
2022-10-01T09:46:20.928Z,95915.59
2022-10-01T09:50:43.996Z,95921.44
2022-10-01T09:55:22.889Z,95923.94
2022-10-01T09:59:51.126Z,95924.03
2022-10-01T10:04:03.481Z,95924.28
2022-10-01T10:08:34.248Z,95921.34
2022-10-01T10:12:47.643Z,95927.31
2022-10-01T10:17:06.771Z,95924.50
2022-10-01T10:21:23.085Z,95936.81
2022-10-01T10:25:36.000Z,95938.41
2022-10-01T10:29:48.399Z,95926.94
2022-10-01T10:34:20.164Z,95944.28
2022-10-01T10:38:35.046Z,95951.69
2022-10-01T10:42:58.321Z,95943.50
2022-10-01T10:47:15.620Z,95950.91
2022-10-01T10:51:29.041Z,95958.38
2022-10-01T10:55:41.867Z,95950.47
2022-10-01T11:00:01.237Z,95951.22
2022-10-01T11:04:42.542Z,95946.41
2022-10-01T11:09:05.625Z,95945.81
2022-10-01T11:13:33.512Z,95952.09
2022-10-01T11:17:56.096Z,95953.28
2022-10-01T11:22:31.360Z,95945.03
2022-10-01T11:27:07.715Z,95957.31
2022-10-01T11:31:29.111Z,95951.19
2022-10-01T11:35:56.097Z,95959.03
2022-10-01T11:40:34.224Z,95956.69
2022-10-01T11:45:05.284Z,95950.47
2022-10-01T11:49:20.817Z,95950.97
2022-10-01T11:53:39.998Z,95963.81
2022-10-01T11:58:18.460Z,95964.75
2022-10-01T12:02:42.466Z,95966.69
2022-10-01T12:07:27.559Z,95976.59
2022-10-01T12:11:48.669Z,95969.47
2022-10-01T12:16:26.219Z,95951.97
2022-10-01T12:20:51.246Z,95955.97
2022-10-01T12:25:03.976Z,95965.16
2022-10-01T12:29:38.075Z,95967.63
2022-10-01T12:34:32.304Z,95961.41
2022-10-01T12:38:58.351Z,95961.31
2022-10-01T12:43:20.104Z,95957.72
2022-10-01T12:48:17.188Z,95943.28
2022-10-01T12:52:42.542Z,95947.03
2022-10-01T12:57:14.950Z,95929.16
2022-10-01T13:02:19.512Z,95932.31
2022-10-01T13:06:44.013Z,95935.44
2022-10-01T13:11:38.210Z,95926.69
2022-10-01T13:15:59.737Z,95927.84
2022-10-01T13:20:31.087Z,95930.59
2022-10-01T13:24:51.801Z,95924.88
2022-10-01T13:29:25.865Z,95924.78
2022-10-01T13:33:38.206Z,95922.03
2022-10-01T13:37:51.069Z,95922.03
2022-10-01T13:42:06.049Z,95924.50
2022-10-01T13:46:18.931Z,95925.06
2022-10-01T13:50:31.701Z,95933.19
2022-10-01T13:54:51.331Z,95941.41
2022-10-01T13:59:26.704Z,95952.19
2022-10-01T14:04:10.137Z,95950.09
2022-10-01T14:08:41.530Z,95961.06
2022-10-01T14:13:21.725Z,95950.03
2022-10-01T14:17:36.639Z,95946.13
2022-10-01T14:22:03.182Z,95945.31
2022-10-01T14:26:29.955Z,95952.19
2022-10-01T14:30:47.145Z,95950.91
2022-10-01T14:35:08.250Z,95945.69
2022-10-01T14:39:26.712Z,95950.84
2022-10-01T14:43:40.388Z,95950.69
2022-10-01T14:48:04.258Z,95940.41
2022-10-01T14:52:33.012Z,95946.31
2022-10-01T14:56:45.889Z,95942.16
2022-10-01T15:00:59.740Z,95952.88
2022-10-01T15:05:24.144Z,95957.59
2022-10-01T15:09:36.649Z,95960.53
2022-10-01T15:13:51.964Z,95966.22
2022-10-01T15:18:05.500Z,95959.31
2022-10-01T15:22:18.104Z,95952.72
2022-10-01T15:26:33.306Z,95957.75
2022-10-01T15:30:46.292Z,95962.69
2022-10-01T15:35:02.851Z,95962.09
2022-10-01T15:39:40.410Z,95956.84
2022-10-01T15:43:52.966Z,95951.72
2022-10-01T15:48:05.269Z,95939.78
2022-10-01T15:52:36.623Z,95943.53
2022-10-01T15:56:49.973Z,95943.59
2022-10-01T16:01:06.680Z,95951.63
2022-10-01T16:05:23.336Z,95944.38
2022-10-01T16:09:35.772Z,95962.16
2022-10-01T16:14:00.907Z,95933.09
2022-10-01T16:18:23.195Z,95958.25
2022-10-01T16:22:38.323Z,95963.03
2022-10-01T16:26:53.070Z,95973.81
2022-10-01T16:31:05.609Z,95973.47
2022-10-01T16:35:29.375Z,95980.59
2022-10-01T16:39:41.855Z,95979.84
2022-10-01T16:43:57.004Z,95987.09
2022-10-01T16:48:20.621Z,95989.56
2022-10-01T16:52:33.087Z,95987.66
2022-10-01T16:56:45.760Z,95998.72
2022-10-01T17:00:58.213Z,96018.22
2022-10-01T17:05:18.939Z,96023.09
2022-10-01T17:09:32.004Z,96014.59
2022-10-01T17:13:44.463Z,96037.22
2022-10-01T17:17:58.417Z,96042.28
2022-10-01T17:22:10.801Z,96035.88
2022-10-01T17:26:23.458Z,96040.38
2022-10-01T17:30:41.331Z,96038.16
2022-10-01T17:34:55.238Z,96041.50
2022-10-01T17:39:07.886Z,96049.69
2022-10-01T17:43:20.404Z,96061.94
2022-10-01T17:51:32.184Z,96079.78
2022-10-01T17:56:59.494Z,96089.66
2022-10-01T18:01:14.291Z,96088.22
2022-10-01T18:05:27.431Z,96108.09
2022-10-01T18:09:41.172Z,96109.88
2022-10-01T18:13:53.978Z,96120.59
2022-10-01T18:22:39.358Z,96129.56
2022-10-01T18:26:51.797Z,96136.16
2022-10-01T18:31:13.425Z,96148.50
2022-10-01T18:35:33.959Z,96140.75
2022-10-01T18:39:54.196Z,96134.66
2022-10-01T18:44:20.422Z,96129.78
2022-10-01T18:48:35.999Z,96142.97
2022-10-01T18:53:48.500Z,96153.75
2022-10-01T18:58:34.486Z,96153.34
2022-10-01T19:03:09.526Z,96162.91
2022-10-01T19:07:39.173Z,96162.63
2022-10-01T19:12:09.026Z,96165.13
2022-10-01T19:16:34.028Z,96168.94
2022-10-01T19:20:54.855Z,96170.84
2022-10-01T19:25:28.224Z,96172.75
2022-10-01T19:30:03.424Z,96177.63
2022-10-01T19:34:39.929Z,96177.06
2022-10-01T19:38:56.464Z,96191.50
2022-10-01T19:43:08.676Z,96193.97
2022-10-01T19:47:30.239Z,96205.63
2022-10-01T19:52:02.876Z,96209.16
